Time;durP1;ratioP1;P1;durP2;ratioP2;P2;SDS_P1;SDS_P2;PMS_P1;PMS_P2;Temp;Humidity;BMP_temperature;BMP_pressure;BME280_temperature;BME280_humidity;BME280_pressure;Samples;Min_cycle;Max_cycle;Signal;HPM_P1;HPM_P2
2021/12/30 00:01:43;;;;;;;5.97;2.13;;;20.20;57.80;;;;;;4428509;32;20171;-78
2021/12/30 00:04:09;;;;;;;8.63;2.10;;;20.20;57.80;;;;;;4415174;32;20066;-83
2021/12/30 00:06:40;;;;;;;7.50;1.83;;;20.20;57.80;;;;;;4429031;32;20088;-83
2021/12/30 00:09:12;;;;;;;7.28;1.83;;;20.20;57.80;;;;;;4415382;32;20089;-83
2021/12/30 00:11:38;;;;;;;5.78;2.13;;;20.20;57.90;;;;;;4428924;32;20185;-83
2021/12/30 00:14:04;;;;;;;8.75;2.03;;;20.20;57.90;;;;;;4428085;32;20116;-82
2021/12/30 00:16:30;;;;;;;7.35;1.98;;;20.10;57.90;;;;;;4428875;32;20079;-83
2021/12/30 00:18:56;;;;;;;9.65;1.88;;;20.10;57.90;;;;;;4427314;32;20051;-83
2021/12/30 00:21:23;;;;;;;6.60;1.70;;;20.10;57.90;;;;;;4428594;32;20086;-83
2021/12/30 00:23:50;;;;;;;5.63;2.00;;;20.10;57.90;;;;;;4428442;32;20500;-82
2021/12/30 00:26:17;;;;;;;8.07;1.92;;;20.10;57.90;;;;;;4428679;32;20097;-82
2021/12/30 00:28:43;;;;;;;8.65;2.22;;;20.10;57.90;;;;;;4428729;32;20126;-82
2021/12/30 00:31:09;;;;;;;6.93;2.00;;;20.00;57.80;;;;;;4428344;32;20404;-82
2021/12/30 00:33:35;;;;;;;5.65;1.60;;;20.00;57.90;;;;;;4428672;32;20487;-83
2021/12/30 00:36:06;;;;;;;6.70;1.73;;;20.00;57.90;;;;;;4427007;32;20509;-82
2021/12/30 00:38:34;;;;;;;6.00;1.88;;;20.00;57.80;;;;;;4428279;32;20089;-82
2021/12/30 00:40:59;;;;;;;6.85;2.13;;;20.00;57.90;;;;;;4429110;32;20204;-82
2021/12/30 00:43:25;;;;;;;5.80;1.75;;;20.00;57.90;;;;;;4431755;32;20299;-83
2021/12/30 00:45:52;;;;;;;6.78;1.95;;;20.00;57.90;;;;;;4431433;32;20429;-83
2021/12/30 00:48:18;;;;;;;8.35;2.25;;;20.00;57.90;;;;;;4418245;32;20078;-83
2021/12/30 00:50:46;;;;;;;5.97;1.95;;;19.90;57.80;;;;;;4431374;32;20504;-83
2021/12/30 00:53:12;;;;;;;6.18;1.63;;;19.90;57.80;;;;;;4431099;32;20070;-83
2021/12/30 00:55:39;;;;;;;4.13;1.58;;;19.90;57.80;;;;;;4431623;32;20401;-83
2021/12/30 00:58:06;;;;;;;6.15;1.90;;;19.90;57.80;;;;;;4431141;32;20089;-83
2021/12/30 01:00:34;;;;;;;7.72;2.33;;;19.90;57.80;;;;;;4431506;32;20235;-83
2021/12/30 01:03:00;;;;;;;6.80;1.98;;;19.90;57.80;;;;;;4430661;32;20071;-83
2021/12/30 01:05:26;;;;;;;5.82;1.73;;;19.90;57.80;;;;;;4430352;32;20160;-83
2021/12/30 01:07:52;;;;;;;6.72;1.60;;;19.80;57.70;;;;;;4430850;32;20543;-77
2021/12/30 01:10:23;;;;;;;8.32;2.25;;;19.80;57.80;;;;;;4430329;32;20211;-83
2021/12/30 01:12:49;;;;;;;4.60;1.88;;;19.80;57.70;;;;;;4430314;32;20291;-84
2021/12/30 01:15:18;;;;;;;6.35;1.67;;;19.80;57.70;;;;;;4430949;32;20097;-83
2021/12/30 01:20:13;;;;;;;5.60;1.60;;;19.80;57.70;;;;;;4430646;32;20501;-83
2021/12/30 01:22:39;;;;;;;4.25;1.60;;;19.80;57.80;;;;;;4431181;32;20075;-83
2021/12/30 01:25:08;;;;;;;7.97;2.15;;;19.80;57.80;;;;;;4430577;32;20473;-83
2021/12/30 01:27:40;;;;;;;5.68;1.73;;;19.70;57.70;;;;;;4431249;32;20090;-82
2021/12/30 01:30:10;;;;;;;4.72;1.58;;;19.70;57.80;;;;;;4417598;32;20074;-83
2021/12/30 01:32:36;;;;;;;7.97;1.92;;;19.70;57.70;;;;;;4430794;32;20092;-83
2021/12/30 01:35:04;;;;;;;5.82;2.13;;;19.70;57.80;;;;;;4430636;32;20172;-83
2021/12/30 01:37:30;;;;;;;4.28;1.88;;;19.70;57.80;;;;;;4431111;32;20258;-83
2021/12/30 01:39:56;;;;;;;8.57;1.83;;;19.70;57.80;;;;;;4430736;32;20394;-78
2021/12/30 01:42:23;;;;;;;6.18;1.75;;;19.70;57.80;;;;;;4430018;32;20184;-83
2021/12/30 01:44:49;;;;;;;5.90;1.67;;;19.70;57.80;;;;;;4429913;32;20606;-83
2021/12/30 01:47:15;;;;;;;6.13;1.80;;;19.70;57.80;;;;;;4430557;32;20102;-83
2021/12/30 01:49:41;;;;;;;5.63;1.80;;;19.70;57.80;;;;;;4430518;32;20643;-83
2021/12/30 01:52:07;;;;;;;7.60;2.05;;;19.60;57.80;;;;;;4430222;32;20084;-82
2021/12/30 01:54:34;;;;;;;6.50;1.95;;;19.60;57.70;;;;;;4430532;32;20137;-82
2021/12/30 01:57:04;;;;;;;4.85;1.60;;;19.60;57.70;;;;;;4429340;32;20082;-81
2021/12/30 01:59:30;;;;;;;5.78;1.63;;;19.60;57.70;;;;;;4430675;32;20500;-83
2021/12/30 02:01:57;;;;;;;3.63;1.70;;;19.60;57.80;;;;;;4429442;32;20082;-82
2021/12/30 02:04:27;;;;;;;5.95;1.52;;;19.60;57.90;;;;;;4430666;32;20129;-83
2021/12/30 02:06:55;;;;;;;5.78;1.60;;;19.60;58.00;;;;;;4430365;32;20277;-84
2021/12/30 02:09:22;;;;;;;5.28;1.65;;;19.60;57.90;;;;;;4430224;32;20098;-83
2021/12/30 02:11:49;;;;;;;4.63;1.77;;;19.60;58.00;;;;;;4430321;32;20097;-84
2021/12/30 02:14:16;;;;;;;5.88;1.80;;;19.60;58.00;;;;;;4430102;32;20814;-83
2021/12/30 02:16:43;;;;;;;7.22;2.05;;;19.50;57.90;;;;;;4430456;32;20097;-84
2021/12/30 02:19:10;;;;;;;3.60;1.58;;;19.50;57.90;;;;;;4430204;32;20090;-83
2021/12/30 02:21:35;;;;;;;5.57;1.90;;;19.50;57.90;;;;;;4430523;32;20062;-83
2021/12/30 02:24:02;;;;;;;4.40;1.55;;;19.50;57.90;;;;;;4429239;32;20156;-78
2021/12/30 02:26:39;;;;;;;6.25;1.75;;;19.50;57.90;;;;;;4430446;32;20172;-82
2021/12/30 02:29:04;;;;;;;5.43;1.90;;;19.50;57.90;;;;;;4429887;32;20110;-79
2021/12/30 02:31:31;;;;;;;6.60;1.80;;;19.50;57.90;;;;;;4416078;32;20240;-83
2021/12/30 02:33:59;;;;;;;4.28;1.65;;;19.50;57.90;;;;;;4428525;32;20224;-81
2021/12/30 02:36:32;;;;;;;5.38;1.70;;;19.50;57.90;;;;;;4430915;32;20153;-83
2021/12/30 02:38:59;;;;;;;5.00;1.75;;;19.50;57.90;;;;;;4445100;32;20182;-83
2021/12/30 02:41:27;;;;;;;4.75;1.58;;;19.40;57.90;;;;;;4445179;32;20090;-83
2021/12/30 02:43:53;;;;;;;5.65;1.95;;;19.40;57.90;;;;;;4445166;32;20179;-83
2021/12/30 02:46:23;;;;;;;6.20;1.90;;;19.50;57.90;;;;;;4431260;32;20230;-83
2021/12/30 02:48:52;;;;;;;4.57;1.60;;;19.50;57.90;;;;;;4445705;32;20078;-83
2021/12/30 02:51:20;;;;;;;6.82;1.90;;;19.40;58.00;;;;;;4445033;32;20228;-83
2021/12/30 02:53:52;;;;;;;6.37;1.77;;;19.40;58.00;;;;;;4445417;32;20175;-83
2021/12/30 02:56:19;;;;;;;5.03;1.90;;;19.40;58.00;;;;;;4430773;32;20602;-81
2021/12/30 02:58:45;;;;;;;5.82;2.00;;;19.40;57.90;;;;;;4444839;32;20085;-82
2021/12/30 03:01:12;;;;;;;6.10;1.70;;;19.40;57.90;;;;;;4444838;32;20204;-83
2021/12/30 03:03:39;;;;;;;5.22;1.80;;;19.30;57.80;;;;;;4430444;32;20074;-83
2021/12/30 03:06:08;;;;;;;7.15;2.17;;;19.30;57.90;;;;;;4445063;32;20551;-83
2021/12/30 03:08:35;;;;;;;3.88;1.75;;;19.30;57.90;;;;;;4430903;32;20140;-83
2021/12/30 03:11:03;;;;;;;7.00;1.80;;;19.30;57.90;;;;;;4444818;32;20508;-83
2021/12/30 03:13:31;;;;;;;4.80;1.65;;;19.30;57.90;;;;;;4444700;32;20193;-83
2021/12/30 03:16:12;;;;;;;4.50;1.80;;;19.30;57.90;;;;;;4431431;32;20091;-82
2021/12/30 03:18:39;;;;;;;4.85;1.70;;;19.30;57.90;;;;;;4444647;32;20143;-83
2021/12/30 03:21:08;;;;;;;6.80;2.10;;;19.30;57.90;;;;;;4444614;32;20102;-83
2021/12/30 03:23:35;;;;;;;6.40;2.15;;;19.30;57.90;;;;;;4444436;32;20243;-82
2021/12/30 03:26:02;;;;;;;5.68;1.73;;;19.30;58.90;;;;;;4444979;32;20212;-83
2021/12/30 03:28:28;;;;;;;7.35;2.10;;;19.30;57.90;;;;;;4430323;32;20074;-83
2021/12/30 03:30:58;;;;;;;4.80;1.60;;;19.30;57.90;;;;;;4444551;32;20518;-82
2021/12/30 03:33:26;;;;;;;5.43;1.60;;;19.20;57.90;;;;;;4444359;32;20547;-83
2021/12/30 03:35:52;;;;;;;4.57;1.50;;;19.20;57.90;;;;;;4444354;32;20516;-82
2021/12/30 03:38:18;;;;;;;4.45;1.48;;;19.30;58.90;;;;;;4443979;32;20066;-83
2021/12/30 03:40:44;;;;;;;5.30;1.92;;;19.30;58.80;;;;;;4444472;32;20121;-82
2021/12/30 03:43:10;;;;;;;5.20;1.70;;;19.20;57.80;;;;;;4430778;32;20144;-83
2021/12/30 03:45:36;;;;;;;6.60;1.83;;;19.20;57.80;;;;;;4444232;32;20086;-82
2021/12/30 03:48:02;;;;;;;4.78;1.73;;;19.20;57.80;;;;;;4430376;32;20058;-83
2021/12/30 03:50:29;;;;;;;5.97;2.05;;;19.20;57.80;;;;;;4444116;32;20132;-83
2021/12/30 03:53:01;;;;;;;5.88;1.90;;;19.20;57.80;;;;;;4444367;32;20125;-82
2021/12/30 03:55:29;;;;;;;4.30;1.40;;;19.20;57.80;;;;;;4430441;32;20082;-83
2021/12/30 03:57:56;;;;;;;9.05;2.20;;;19.20;57.80;;;;;;4444322;32;20093;-80
2021/12/30 04:00:24;;;;;;;7.78;1.88;;;19.20;57.80;;;;;;4444043;32;20138;-82
2021/12/30 04:02:54;;;;;;;5.03;1.80;;;19.20;57.70;;;;;;4443860;32;20168;-83
2021/12/30 04:05:21;;;;;;;6.72;2.00;;;19.10;57.60;;;;;;4443680;32;20088;-84
2021/12/30 04:07:47;;;;;;;6.55;1.98;;;19.20;58.60;;;;;;4444483;32;20136;-83
2021/12/30 04:10:14;;;;;;;6.63;1.90;;;19.20;57.70;;;;;;4444529;32;20504;-84
2021/12/30 04:12:43;;;;;;;7.57;2.10;;;19.20;57.70;;;;;;4443705;32;20082;-84
2021/12/30 04:15:10;;;;;;;8.52;2.38;;;19.10;57.60;;;;;;4443828;32;20299;-83
2021/12/30 04:17:36;;;;;;;5.05;1.67;;;19.10;57.50;;;;;;4443886;32;20311;-83
2021/12/30 04:20:04;;;;;;;7.15;1.98;;;19.10;57.60;;;;;;4444157;32;20081;-83
2021/12/30 04:22:30;;;;;;;4.63;1.77;;;19.10;57.60;;;;;;4429959;32;20216;-82
2021/12/30 04:24:58;;;;;;;5.65;2.13;;;19.10;57.60;;;;;;4430259;32;20086;-83
2021/12/30 04:27:24;;;;;;;4.85;1.75;;;19.10;57.60;;;;;;4443796;32;20143;-82
2021/12/30 04:29:50;;;;;;;4.97;1.88;;;19.10;57.50;;;;;;4444151;32;20492;-82
2021/12/30 04:32:15;;;;;;;5.38;1.95;;;19.10;57.50;;;;;;4429947;32;20070;-81
2021/12/30 04:34:45;;;;;;;6.85;2.05;;;19.10;57.60;;;;;;4443813;32;20393;-82
2021/12/30 04:37:11;;;;;;;5.43;1.90;;;19.10;57.50;;;;;;4444111;32;20089;-83
2021/12/30 04:39:37;;;;;;;5.90;2.15;;;19.10;57.50;;;;;;4429788;32;20132;-83
2021/12/30 04:42:03;;;;;;;6.25;2.17;;;19.10;57.50;;;;;;4444176;32;20216;-82
2021/12/30 04:44:29;;;;;;;5.35;1.90;;;19.10;57.50;;;;;;4443414;32;20114;-83
2021/12/30 04:46:56;;;;;;;8.10;2.10;;;19.10;57.50;;;;;;4443929;32;20167;-83
2021/12/30 04:49:23;;;;;;;6.70;2.25;;;19.00;57.40;;;;;;4443473;32;20140;-78
2021/12/30 04:51:49;;;;;;;6.70;1.88;;;19.10;57.50;;;;;;4443534;32;20090;-82
2021/12/30 04:54:16;;;;;;;6.13;2.08;;;19.00;57.50;;;;;;4444010;32;20382;-82
2021/12/30 04:56:42;;;;;;;5.93;1.90;;;19.00;57.40;;;;;;4443404;32;20771;-82
2021/12/30 04:59:08;;;;;;;7.68;2.20;;;19.00;57.40;;;;;;4443578;32;20540;-82
2021/12/30 05:01:34;;;;;;;6.60;2.08;;;19.00;57.50;;;;;;4429355;32;20110;-82
2021/12/30 05:04:00;;;;;;;6.93;2.40;;;19.00;57.50;;;;;;4443594;32;20136;-83
2021/12/30 05:06:26;;;;;;;6.20;1.90;;;19.00;57.50;;;;;;4429507;32;20136;-82
2021/12/30 05:08:52;;;;;;;5.57;2.08;;;19.00;57.40;;;;;;4429732;32;20086;-83
2021/12/30 05:11:18;;;;;;;7.60;1.92;;;19.00;57.40;;;;;;4443937;32;20062;-83
2021/12/30 05:13:44;;;;;;;4.38;1.60;;;19.00;57.50;;;;;;4443481;32;20279;-83
2021/12/30 05:16:11;;;;;;;5.28;1.90;;;18.90;57.40;;;;;;4443763;32;20220;-83
2021/12/30 05:18:37;;;;;;;5.70;1.83;;;18.90;57.50;;;;;;4429367;32;20168;-82
2021/12/30 05:21:05;;;;;;;6.60;1.95;;;18.90;57.50;;;;;;4443965;32;20252;-82
2021/12/30 05:23:31;;;;;;;5.55;2.13;;;18.90;57.50;;;;;;4443591;32;20100;-82
2021/12/30 05:25:58;;;;;;;7.80;2.28;;;18.90;57.50;;;;;;4443814;32;20066;-82
2021/12/30 05:28:24;;;;;;;4.68;2.05;;;18.90;57.50;;;;;;4445843;32;20149;-83
2021/12/30 05:30:50;;;;;;;5.68;1.90;;;18.90;57.50;;;;;;4427030;32;20236;-82
2021/12/30 05:33:16;;;;;;;4.35;1.83;;;18.90;57.50;;;;;;4430506;32;20161;-83
2021/12/30 05:35:42;;;;;;;7.72;2.20;;;18.90;57.50;;;;;;4430026;32;20416;-83
2021/12/30 05:38:08;;;;;;;5.95;2.03;;;18.90;57.50;;;;;;4430223;32;20070;-83
2021/12/30 05:40:34;;;;;;;7.97;2.60;;;18.90;57.50;;;;;;4432162;32;20615;-81
2021/12/30 05:43:04;;;;;;;6.60;2.17;;;18.90;57.50;;;;;;4430211;32;20095;-82
2021/12/30 05:45:30;;;;;;;6.55;2.38;;;18.90;57.50;;;;;;4432160;32;20409;-78
2021/12/30 05:47:56;;;;;;;5.45;2.05;;;18.90;57.50;;;;;;4430171;32;20066;-84
2021/12/30 05:50:27;;;;;;;8.18;2.47;;;18.90;57.50;;;;;;4430165;32;20090;-83
2021/12/30 05:52:54;;;;;;;6.05;2.00;;;18.90;57.50;;;;;;4429943;32;20097;-83
2021/12/30 05:55:20;;;;;;;5.35;1.80;;;18.90;57.50;;;;;;4429050;32;20405;-83
2021/12/30 05:57:47;;;;;;;5.20;2.00;;;18.80;57.50;;;;;;4428550;32;20150;-82
2021/12/30 06:00:16;;;;;;;5.72;2.17;;;18.90;57.50;;;;;;4432164;32;20468;-82
2021/12/30 06:02:44;;;;;;;6.97;1.90;;;18.80;57.50;;;;;;4429418;32;20382;-83
2021/12/30 06:05:11;;;;;;;6.32;2.13;;;18.80;57.50;;;;;;4431678;32;20204;-81
2021/12/30 06:07:37;;;;;;;6.07;2.10;;;18.90;57.50;;;;;;4418913;32;20070;-83
2021/12/30 06:10:04;;;;;;;6.85;2.28;;;18.80;57.50;;;;;;4445223;32;20113;-81
2021/12/30 06:12:30;;;;;;;7.32;2.25;;;18.80;57.50;;;;;;4456971;32;20140;-83
2021/12/30 06:14:57;;;;;;;7.43;2.28;;;18.80;57.50;;;;;;4444682;32;20082;-82
2021/12/30 06:17:24;;;;;;;5.22;2.03;;;18.80;57.50;;;;;;4445142;32;20543;-84
2021/12/30 06:19:50;;;;;;;6.25;2.33;;;18.80;57.50;;;;;;4444654;32;20085;-83
2021/12/30 06:22:16;;;;;;;5.68;2.20;;;18.80;57.50;;;;;;4444929;32;20066;-83
2021/12/30 06:24:43;;;;;;;5.68;1.90;;;18.80;57.50;;;;;;4430271;32;20124;-82
2021/12/30 06:27:10;;;;;;;5.47;1.80;;;18.80;57.50;;;;;;4444929;32;20086;-82
2021/12/30 06:29:36;;;;;;;5.38;1.67;;;18.80;57.50;;;;;;4445098;32;20551;-77
2021/12/30 06:32:04;;;;;;;5.07;1.70;;;18.80;57.60;;;;;;4431919;32;20216;-82
2021/12/30 06:34:31;;;;;;;6.20;2.20;;;18.70;57.50;;;;;;4445712;32;20077;-81
2021/12/30 06:36:57;;;;;;;4.82;1.98;;;18.80;57.60;;;;;;4445000;32;20287;-83
2021/12/30 06:39:23;;;;;;;6.38;1.98;;;18.70;57.50;;;;;;4417731;32;20653;-82
2021/12/30 06:41:49;;;;;;;6.88;2.35;;;18.80;57.60;;;;;;4431284;32;20268;-83
2021/12/30 06:44:15;;;;;;;5.03;2.05;;;18.70;57.50;;;;;;4445637;32;20117;-83
2021/12/30 06:46:49;;;;;;;4.85;2.20;;;18.70;57.50;;;;;;4430874;32;20220;-81
2021/12/30 06:49:16;;;;;;;4.45;2.20;;;18.70;57.50;;;;;;4445232;32;20089;-83
2021/12/30 06:51:42;;;;;;;4.38;1.73;;;18.70;57.50;;;;;;4444603;32;20093;-83
2021/12/30 06:54:08;;;;;;;5.53;1.60;;;18.70;57.50;;;;;;4444756;32;20141;-82
2021/12/30 06:56:35;;;;;;;5.32;2.05;;;18.70;57.50;;;;;;4445119;32;20255;-82
2021/12/30 06:59:02;;;;;;;6.43;2.08;;;18.70;57.50;;;;;;4418233;32;20195;-80
2021/12/30 07:01:29;;;;;;;6.65;2.30;;;18.70;57.50;;;;;;4445080;32;20175;-84
2021/12/30 07:03:56;;;;;;;5.95;1.90;;;18.70;57.70;;;;;;4443826;32;20078;-82
2021/12/30 07:06:22;;;;;;;5.90;2.25;;;18.60;57.80;;;;;;4444864;32;20228;-80
2021/12/30 07:08:47;;;;;;;6.85;2.33;;;18.60;57.80;;;;;;4445261;32;20074;-89
2021/12/30 07:11:15;;;;;;;9.75;2.85;;;18.60;57.90;;;;;;4446363;32;20129;-88
2021/12/30 07:13:41;;;;;;;6.68;2.60;;;18.60;58.10;;;;;;4446680;32;20481;-75
2021/12/30 07:16:07;;;;;;;7.97;2.17;;;18.60;58.20;;;;;;4431838;32;20078;-89
2021/12/30 07:18:33;;;;;;;4.70;1.73;;;18.60;58.30;;;;;;4445854;32;20104;-76
2021/12/30 07:20:59;;;;;;;6.13;2.45;;;18.60;58.40;;;;;;4444874;32;20069;-82
2021/12/30 07:23:25;;;;;;;7.50;2.13;;;18.50;58.40;;;;;;4430951;32;20082;-85
2021/12/30 07:25:52;;;;;;;5.35;2.28;;;18.60;58.50;;;;;;4444275;32;20105;-84
2021/12/30 07:28:18;;;;;;;8.05;2.17;;;18.60;58.60;;;;;;4445044;32;20085;-86
2021/12/30 07:30:44;;;;;;;5.30;2.03;;;18.60;58.60;;;;;;4444237;32;20106;-79
2021/12/30 07:33:10;;;;;;;6.57;2.08;;;18.60;58.70;;;;;;4431070;32;20156;-86
2021/12/30 07:35:36;;;;;;;5.55;2.15;;;18.60;58.70;;;;;;4444937;32;20133;-86
2021/12/30 07:38:03;;;;;;;5.47;1.98;;;18.50;58.70;;;;;;4444390;32;20085;-86
2021/12/30 07:40:31;;;;;;;5.57;2.00;;;18.60;58.70;;;;;;4430871;32;20196;-84
2021/12/30 07:42:57;;;;;;;4.45;1.90;;;18.60;58.80;;;;;;4444438;32;20105;-83
2021/12/30 07:45:23;;;;;;;5.93;2.20;;;18.60;58.70;;;;;;4430562;32;20106;-84
2021/12/30 07:47:50;;;;;;;4.82;2.00;;;18.60;58.60;;;;;;4430447;32;20196;-82
2021/12/30 07:50:22;;;;;;;5.68;1.90;;;18.70;58.60;;;;;;4430521;32;20503;-82
2021/12/30 07:52:48;;;;;;;6.60;1.77;;;18.80;58.50;;;;;;4444125;32;20096;-79
2021/12/30 07:55:14;;;;;;;4.32;1.90;;;18.90;58.30;;;;;;4444154;32;20096;-83
2021/12/30 07:57:41;;;;;;;5.18;2.00;;;19.00;58.10;;;;;;4430585;32;20093;-81
2021/12/30 08:00:10;;;;;;;5.15;1.65;;;19.10;57.90;;;;;;4443593;32;20726;-83
2021/12/30 08:02:37;;;;;;;3.70;1.55;;;19.20;57.60;;;;;;4444312;32;20074;-80
2021/12/30 08:05:04;;;;;;;3.97;1.42;;;19.30;57.40;;;;;;4443827;32;20455;-83
2021/12/30 08:07:29;;;;;;;5.78;1.77;;;19.40;57.10;;;;;;4444741;32;20133;-83
2021/12/30 08:09:55;;;;;;;4.22;1.42;;;19.50;56.90;;;;;;4443722;32;20080;-84
2021/12/30 08:12:21;;;;;;;4.43;1.45;;;19.60;56.70;;;;;;4444329;32;20125;-85
2021/12/30 08:14:47;;;;;;;3.08;1.38;;;19.80;56.50;;;;;;4444316;32;20066;-82
2021/12/30 08:17:13;;;;;;;4.40;1.60;;;19.90;56.20;;;;;;4444018;32;20155;-83
2021/12/30 08:19:40;;;;;;;3.60;1.33;;;20.00;55.90;;;;;;4444283;32;20117;-84
2021/12/30 08:22:06;;;;;;;2.70;1.25;;;20.10;55.60;;;;;;4417533;32;20082;-86
2021/12/30 08:24:33;;;;;;;5.22;1.50;;;20.20;55.30;;;;;;4431202;32;20195;-88
2021/12/30 08:26:59;;;;;;;3.58;1.50;;;20.40;55.20;;;;;;4444932;32;20517;-90
2021/12/30 08:29:26;;;;;;;2.67;1.08;;;20.50;54.90;;;;;;4432081;32;20134;-90
2021/12/30 08:31:52;;;;;;;3.50;1.33;;;20.60;54.60;;;;;;4431733;32;20070;-80
2021/12/30 08:34:18;;;;;;;2.35;1.20;;;20.70;54.40;;;;;;4431236;32;20124;-80
2021/12/30 08:36:44;;;;;;;4.43;1.10;;;20.80;54.30;;;;;;4428599;32;20074;-85
2021/12/30 08:39:10;;;;;;;3.38;1.10;;;20.90;54.10;;;;;;4428458;32;20215;-90
2021/12/30 08:41:35;;;;;;;4.15;1.33;;;21.00;53.90;;;;;;4428474;32;20217;-82
2021/12/30 08:44:01;;;;;;;2.25;1.00;;;21.10;53.70;;;;;;4427559;32;20082;-81
2021/12/30 08:46:27;;;;;;;2.92;1.00;;;21.20;53.60;;;;;;4427767;32;20075;-80
2021/12/30 08:48:53;;;;;;;2.67;0.80;;;21.20;53.30;;;;;;4435786;32;20063;-74
2021/12/30 08:51:19;;;;;;;2.33;0.80;;;21.20;53.20;;;;;;4427819;32;20192;-78
2021/12/30 08:53:45;;;;;;;4.50;1.13;;;21.30;53.10;;;;;;4429398;32;20280;-78
2021/12/30 08:56:12;;;;;;;3.00;0.70;;;21.30;53.00;;;;;;4427591;32;20082;-74
2021/12/30 08:58:38;;;;;;;3.40;0.95;;;21.30;53.00;;;;;;4435735;32;20526;-80
2021/12/30 09:01:05;;;;;;;2.08;0.80;;;21.30;53.20;;;;;;4413576;32;20658;-81
2021/12/30 09:03:31;;;;;;;2.78;0.73;;;21.20;53.30;;;;;;4417888;32;20097;-82
2021/12/30 09:05:57;;;;;;;2.40;0.55;;;21.10;53.40;;;;;;4429405;32;20066;-80
2021/12/30 09:08:23;;;;;;;2.38;0.60;;;21.10;53.70;;;;;;4436374;32;20108;-75
2021/12/30 09:10:50;;;;;;;1.33;0.80;;;21.00;54.00;;;;;;4445909;32;20171;-76
2021/12/30 09:13:19;;;;;;;3.55;0.82;;;21.00;54.20;;;;;;4445014;32;20415;-76
2021/12/30 09:15:46;;;;;;;2.53;0.77;;;20.90;54.40;;;;;;4431977;32;20108;-77
2021/12/30 09:18:13;;;;;;;0.70;0.50;;;20.80;54.60;;;;;;4445490;32;20244;-77
2021/12/30 09:20:41;;;;;;;1.52;0.70;;;20.80;54.80;;;;;;4430031;32;20077;-77
2021/12/30 09:23:09;;;;;;;1.45;0.50;;;20.70;54.90;;;;;;4431480;32;20077;-77
2021/12/30 09:25:37;;;;;;;1.10;0.60;;;20.70;55.00;;;;;;4445826;32;20137;-76
2021/12/30 09:28:03;;;;;;;1.40;0.70;;;20.70;55.20;;;;;;4445495;32;20092;-76
2021/12/30 09:30:29;;;;;;;1.25;0.60;;;20.70;55.30;;;;;;4445679;32;20084;-76
2021/12/30 09:32:57;;;;;;;1.30;0.55;;;20.60;55.40;;;;;;4445604;32;20125;-75
2021/12/30 09:35:23;;;;;;;1.45;0.60;;;20.60;55.40;;;;;;4431482;32;20106;-76
2021/12/30 09:37:50;;;;;;;1.88;0.57;;;20.60;55.40;;;;;;4445622;32;20093;-79
2021/12/30 09:40:16;;;;;;;0.93;0.57;;;20.60;55.40;;;;;;4431220;32;20098;-76
2021/12/30 09:42:46;;;;;;;2.13;0.50;;;20.60;55.60;;;;;;4445579;32;20539;-78
2021/12/30 09:45:13;;;;;;;3.90;0.60;;;20.60;55.60;;;;;;4444991;32;20516;-78
2021/12/30 09:47:52;;;;;;;1.70;0.82;;;20.60;55.70;;;;;;4446601;32;20551;-78
2021/12/30 09:50:20;;;;;;;0.80;0.50;;;20.60;55.80;;;;;;4446132;32;20136;-78
2021/12/30 09:52:46;;;;;;;1.67;0.60;;;20.60;55.80;;;;;;4446257;32;20504;-77
2021/12/30 09:55:12;;;;;;;2.13;0.60;;;20.60;55.80;;;;;;4445949;32;20074;-78
2021/12/30 09:57:38;;;;;;;0.82;0.40;;;20.60;55.90;;;;;;4432345;32;20062;-78
2021/12/30 10:00:10;;;;;;;1.40;0.60;;;20.60;56.00;;;;;;4446028;32;20132;-79
2021/12/30 10:02:36;;;;;;;4.03;0.70;;;20.60;56.00;;;;;;4445897;32;20621;-79
2021/12/30 10:05:06;;;;;;;2.10;0.70;;;20.60;56.10;;;;;;4445677;32;20082;-78
2021/12/30 10:07:32;;;;;;;2.08;0.50;;;20.60;56.10;;;;;;4445646;32;20077;-78
2021/12/30 10:10:02;;;;;;;2.90;0.50;;;20.50;56.10;;;;;;4445635;32;20088;-80
2021/12/30 10:12:39;;;;;;;2.90;0.60;;;20.60;56.10;;;;;;4445028;32;20168;-78
2021/12/30 10:15:06;;;;;;;1.30;0.50;;;20.60;56.20;;;;;;4445614;32;20268;-78
2021/12/30 10:17:32;;;;;;;1.70;0.77;;;20.60;56.20;;;;;;4432025;32;20093;-78
2021/12/30 10:20:20;;;;;;;2.05;0.70;;;20.50;56.20;;;;;;4445858;32;20074;-79
2021/12/30 10:22:47;;;;;;;3.58;0.95;;;20.60;56.20;;;;;;4438388;32;20074;-78
2021/12/30 10:25:30;;;;;;;3.28;0.80;;;20.60;56.20;;;;;;4431362;32;20062;-81
2021/12/30 10:28:15;;;;;;;2.80;0.60;;;20.60;56.20;;;;;;4444952;32;20500;-78
2021/12/30 10:30:41;;;;;;;1.20;0.50;;;20.60;56.30;;;;;;4445711;32;20098;-86
2021/12/30 10:33:12;;;;;;;2.75;0.65;;;20.60;56.40;;;;;;4431241;32;20097;-80
2021/12/30 10:35:38;;;;;;;1.75;0.70;;;20.60;56.50;;;;;;4445532;32;20070;-78
2021/12/30 10:38:09;;;;;;;3.22;0.90;;;20.60;56.50;;;;;;4444816;32;20058;-77
2021/12/30 10:40:36;;;;;;;1.48;0.60;;;20.60;56.50;;;;;;4419387;32;20136;-81
2021/12/30 10:43:26;;;;;;;1.95;0.82;;;20.60;56.60;;;;;;4445617;32;20408;-80
2021/12/30 10:46:06;;;;;;;2.00;0.80;;;20.60;56.60;;;;;;4430700;32;20102;-80
2021/12/30 10:48:34;;;;;;;2.42;0.85;;;20.60;56.70;;;;;;4440091;32;20090;-78
2021/12/30 10:51:34;;;;;;;2.70;0.80;;;20.60;56.70;;;;;;4429384;32;20082;-80
2021/12/30 10:54:16;;;;;;;2.78;0.88;;;20.60;56.70;;;;;;4430552;32;20175;-75
2021/12/30 10:56:48;;;;;;;2.92;0.90;;;20.60;56.70;;;;;;4445072;32;20295;-78
2021/12/30 10:59:22;;;;;;;4.07;0.80;;;20.60;56.80;;;;;;4444840;32;20271;-80
2021/12/30 11:01:52;;;;;;;2.03;0.90;;;20.60;56.80;;;;;;4445578;32;20093;-78
2021/12/30 11:04:20;;;;;;;2.67;0.75;;;20.60;56.80;;;;;;4444562;32;20223;-78
2021/12/30 11:06:48;;;;;;;3.45;0.98;;;20.60;56.80;;;;;;4430361;32;20126;-76
2021/12/30 11:09:15;;;;;;;2.78;0.93;;;20.70;56.80;;;;;;4431167;32;20092;-79
2021/12/30 11:11:45;;;;;;;4.78;0.90;;;20.70;56.80;;;;;;4444996;32;20097;-79
2021/12/30 11:14:16;;;;;;;3.47;1.00;;;20.70;56.90;;;;;;4445034;32;20396;-80
2021/12/30 11:17:09;;;;;;;3.53;0.70;;;20.70;56.90;;;;;;4445173;32;20074;-78
2021/12/30 11:19:49;;;;;;;6.18;1.00;;;20.70;56.90;;;;;;4444000;32;20086;-78
2021/12/30 11:22:18;;;;;;;2.83;0.98;;;20.70;56.90;;;;;;4444118;32;20132;-81
2021/12/30 11:24:46;;;;;;;3.08;0.98;;;20.70;56.90;;;;;;4430646;32;20082;-78
2021/12/30 11:27:14;;;;;;;1.98;0.68;;;20.70;56.90;;;;;;4418349;32;20081;-81
2021/12/30 11:29:43;;;;;;;2.28;0.80;;;20.70;56.90;;;;;;4444592;32;20092;-77
2021/12/30 11:32:10;;;;;;;2.83;0.65;;;20.70;56.90;;;;;;4444334;32;20108;-79
2021/12/30 11:34:36;;;;;;;4.20;1.30;;;20.70;57.00;;;;;;4444448;32;20136;-77
2021/12/30 11:37:04;;;;;;;3.63;1.13;;;20.70;57.00;;;;;;4444747;32;20443;-76
2021/12/30 11:39:30;;;;;;;3.28;1.00;;;20.70;57.00;;;;;;4444129;32;20266;-79
2021/12/30 11:42:23;;;;;;;3.70;1.13;;;20.70;57.10;;;;;;4428431;32;20133;-80
2021/12/30 11:45:02;;;;;;;5.67;1.57;;;20.70;57.00;;;;;;4444308;32;20111;-76
2021/12/30 11:47:34;;;;;;;5.47;1.17;;;20.60;57.10;;;;;;4432845;32;20096;-76
2021/12/30 11:50:06;;;;;;;5.70;1.20;;;20.60;57.20;;;;;;4440950;32;20080;-84
2021/12/30 11:52:44;;;;;;;4.18;1.08;;;20.60;57.20;;;;;;4428239;32;20081;-78
2021/12/30 11:55:48;;;;;;;3.33;1.10;;;20.60;57.40;;;;;;4428521;32;20179;-73
2021/12/30 11:58:45;;;;;;;5.03;1.33;;;20.60;57.40;;;;;;4428678;32;20097;-78
2021/12/30 12:01:11;;;;;;;12.93;1.42;;;20.50;57.40;;;;;;4429171;32;20160;-81
2021/12/30 12:03:54;;;;;;;7.95;1.50;;;20.60;57.70;;;;;;4428587;32;20075;-79
2021/12/30 12:06:42;;;;;;;6.15;1.23;;;20.60;57.50;;;;;;4415056;32;20070;-80
2021/12/30 12:09:22;;;;;;;5.65;1.80;;;20.70;57.50;;;;;;4431969;32;20151;-74
2021/12/30 12:11:56;;;;;;;8.48;1.67;;;20.70;57.50;;;;;;4428297;32;20409;-79
2021/12/30 12:14:25;;;;;;;7.22;1.95;;;20.80;57.40;;;;;;4428594;32;20082;-78
2021/12/30 12:17:00;;;;;;;7.45;1.52;;;20.80;57.20;;;;;;4428314;32;20137;-83
2021/12/30 12:19:44;;;;;;;6.05;1.33;;;20.90;57.00;;;;;;4428005;32;20488;-82
2021/12/30 12:22:19;;;;;;;8.52;1.70;;;20.90;56.80;;;;;;4428232;32;20133;-83
2021/12/30 12:24:50;;;;;;;8.82;1.30;;;21.00;56.60;;;;;;4428708;32;20588;-79
2021/12/30 12:27:18;;;;;;;5.80;1.30;;;21.00;56.50;;;;;;4428944;32;20247;-77
2021/12/30 12:29:51;;;;;;;7.68;1.63;;;21.10;56.40;;;;;;4428650;32;20695;-75
2021/12/30 12:32:20;;;;;;;8.13;1.77;;;21.10;56.40;;;;;;4425235;32;20504;-77
2021/12/30 12:34:50;;;;;;;4.95;1.48;;;21.10;56.30;;;;;;4420890;32;20181;-78
2021/12/30 12:37:39;;;;;;;7.63;1.90;;;21.10;56.40;;;;;;4435084;32;20564;-76
2021/12/30 12:40:27;;;;;;;8.93;1.77;;;21.10;56.40;;;;;;4435366;32;20302;-77
2021/12/30 12:42:59;;;;;;;4.38;1.52;;;21.10;56.40;;;;;;4431333;32;20559;-78
2021/12/30 12:45:31;;;;;;;7.95;2.03;;;21.10;56.30;;;;;;4431350;32;20594;-78
2021/12/30 12:48:16;;;;;;;6.85;1.70;;;21.10;56.30;;;;;;4431262;32;20164;-77
2021/12/30 12:50:43;;;;;;;7.25;1.90;;;21.10;56.30;;;;;;4417185;32;20167;-77
2021/12/30 12:53:24;;;;;;;15.50;1.98;;;21.10;56.30;;;;;;4431209;32;20154;-77
2021/12/30 12:56:02;;;;;;;7.40;1.80;;;21.10;56.30;;;;;;4431599;32;20611;-75
2021/12/30 12:58:30;;;;;;;7.32;2.00;;;21.10;56.40;;;;;;4433357;32;20212;-75